createdAt,value
2022-08-31T00:00:42.030Z,51.40
2022-08-31T00:03:28.219Z,51.40
2022-08-31T00:06:01.837Z,51.40
2022-08-31T00:08:31.005Z,51.40
2022-08-31T00:10:59.785Z,51.40
2022-08-31T00:13:29.910Z,51.40
2022-08-31T00:15:59.594Z,51.40
2022-08-31T00:18:27.230Z,51.30
2022-08-31T00:20:55.779Z,51.30
2022-08-31T00:23:24.465Z,51.30
2022-08-31T00:25:53.765Z,51.30
2022-08-31T00:28:20.812Z,51.20
2022-08-31T00:30:48.439Z,51.20
2022-08-31T00:33:15.569Z,51.10
2022-08-31T00:35:44.732Z,51.00
2022-08-31T00:38:12.403Z,51.10
2022-08-31T00:40:44.855Z,51.10
2022-08-31T00:43:31.301Z,51.20
2022-08-31T00:45:58.331Z,51.10
2022-08-31T00:48:25.222Z,51.20
2022-08-31T00:50:52.462Z,51.20
2022-08-31T00:53:19.761Z,51.10
2022-08-31T00:55:47.532Z,51.10
2022-08-31T00:58:15.101Z,51.20
2022-08-31T01:00:43.284Z,51.10
2022-08-31T01:03:11.119Z,51.10
2022-08-31T01:05:39.580Z,52.20
2022-08-31T01:08:06.893Z,51.00
2022-08-31T01:10:37.676Z,51.10
2022-08-31T01:13:05.708Z,51.10
2022-08-31T01:15:36.847Z,51.10
2022-08-31T01:18:05.870Z,51.00
2022-08-31T01:20:37.618Z,51.00
2022-08-31T01:23:12.896Z,51.10
2022-08-31T01:25:42.726Z,51.20
2022-08-31T01:28:10.835Z,51.20
2022-08-31T01:30:39.837Z,51.20
2022-08-31T01:33:06.925Z,51.20
2022-08-31T01:35:34.367Z,51.20
2022-08-31T01:38:02.521Z,51.00
2022-08-31T01:40:44.489Z,51.00
2022-08-31T01:43:11.634Z,51.00
2022-08-31T01:45:38.561Z,51.10
2022-08-31T01:48:05.617Z,51.00
2022-08-31T01:50:32.584Z,51.10
2022-08-31T01:52:59.692Z,51.10
2022-08-31T01:55:26.664Z,51.00
2022-08-31T01:57:53.578Z,51.00
2022-08-31T02:00:26.552Z,52.10
2022-08-31T02:02:53.782Z,51.00
2022-08-31T02:05:20.745Z,50.90
2022-08-31T02:07:47.692Z,50.90
2022-08-31T02:10:15.188Z,50.90
2022-08-31T02:12:42.329Z,50.90
2022-08-31T02:15:10.427Z,50.90
2022-08-31T02:17:37.451Z,50.80
2022-08-31T02:20:08.844Z,50.80
2022-08-31T02:22:35.817Z,50.50
2022-08-31T02:25:03.108Z,50.60
2022-08-31T02:27:30.087Z,50.60
2022-08-31T02:29:57.165Z,50.90
2022-08-31T02:32:24.383Z,50.70
2022-08-31T02:34:51.375Z,50.60
2022-08-31T02:37:20.936Z,50.50
2022-08-31T02:39:48.676Z,50.50
2022-08-31T02:42:18.484Z,50.60
2022-08-31T02:44:46.374Z,50.50
2022-08-31T02:47:13.348Z,51.60
2022-08-31T02:49:45.736Z,50.40
2022-08-31T02:52:13.393Z,50.50
2022-08-31T02:54:43.517Z,50.50
2022-08-31T02:57:12.093Z,50.30
2022-08-31T02:59:39.035Z,50.30
2022-08-31T03:02:07.109Z,50.30
2022-08-31T03:04:37.049Z,50.50
2022-08-31T03:07:03.954Z,50.40
2022-08-31T03:09:32.665Z,50.40
2022-08-31T03:12:00.646Z,50.40
2022-08-31T03:14:27.868Z,50.40
2022-08-31T03:16:55.095Z,50.30
2022-08-31T03:19:22.136Z,50.30
2022-08-31T03:21:55.967Z,50.30
2022-08-31T03:24:27.302Z,50.30
2022-08-31T03:26:55.528Z,50.20
2022-08-31T03:29:22.401Z,50.10
2022-08-31T03:32:09.688Z,51.20
2022-08-31T03:34:38.064Z,50.10
2022-08-31T03:37:05.460Z,50.10
2022-08-31T03:39:32.358Z,50.10
2022-08-31T03:42:00.041Z,50.00
2022-08-31T03:44:26.965Z,51.00
2022-08-31T03:46:57.233Z,49.90
2022-08-31T03:49:24.967Z,49.80
2022-08-31T03:52:09.682Z,49.80
2022-08-31T03:54:44.414Z,49.60
2022-08-31T03:57:12.299Z,49.50
2022-08-31T03:59:39.642Z,49.50
2022-08-31T04:02:37.360Z,49.50
2022-08-31T04:05:23.153Z,49.40
2022-08-31T04:08:20.701Z,49.40
2022-08-31T04:11:44.595Z,49.40
2022-08-31T04:14:31.944Z,49.20
2022-08-31T04:17:17.482Z,49.00
2022-08-31T04:19:48.498Z,48.90
2022-08-31T04:22:28.043Z,48.90
2022-08-31T04:25:13.449Z,48.70
2022-08-31T04:27:45.215Z,48.40
2022-08-31T04:30:12.660Z,48.40
2022-08-31T04:32:40.373Z,48.20
2022-08-31T04:35:08.629Z,48.30
2022-08-31T04:37:35.631Z,47.90
2022-08-31T04:40:03.507Z,47.90
2022-08-31T04:42:31.432Z,47.80
2022-08-31T04:44:58.406Z,47.80
2022-08-31T04:47:25.558Z,47.80
2022-08-31T04:49:52.585Z,48.90
2022-08-31T04:52:19.469Z,47.70
2022-08-31T04:54:51.643Z,47.70
2022-08-31T04:57:18.587Z,47.70
2022-08-31T04:59:46.058Z,47.40
2022-08-31T05:02:33.293Z,47.30
2022-08-31T05:05:08.899Z,47.20
2022-08-31T05:07:37.514Z,47.00
2022-08-31T05:10:05.662Z,46.90
2022-08-31T05:12:32.613Z,47.00
2022-08-31T05:14:59.641Z,46.80
2022-08-31T05:17:28.174Z,46.60
2022-08-31T05:19:55.197Z,46.60
2022-08-31T05:22:22.083Z,46.50
2022-08-31T05:24:51.685Z,46.50
2022-08-31T05:27:18.538Z,46.40
2022-08-31T05:29:45.600Z,46.30
2022-08-31T05:32:35.685Z,46.20
2022-08-31T05:35:05.590Z,46.20
2022-08-31T05:37:32.655Z,46.20
2022-08-31T05:39:59.692Z,46.20
2022-08-31T05:42:26.914Z,46.10
2022-08-31T05:44:54.729Z,46.10
2022-08-31T05:47:21.717Z,46.00
2022-08-31T05:49:49.500Z,46.10
2022-08-31T05:52:19.470Z,45.90
2022-08-31T05:54:51.886Z,45.90
2022-08-31T05:57:20.022Z,45.80
2022-08-31T05:59:50.362Z,45.90
2022-08-31T06:02:17.600Z,46.00
2022-08-31T06:04:45.763Z,45.90
2022-08-31T06:07:12.837Z,46.00
2022-08-31T06:09:47.273Z,47.20
2022-08-31T06:12:19.320Z,45.90
2022-08-31T06:14:49.993Z,45.80
2022-08-31T06:17:20.240Z,45.90
2022-08-31T06:19:47.535Z,46.00
2022-08-31T06:22:14.516Z,46.00
2022-08-31T06:24:43.040Z,46.00
2022-08-31T06:27:10.335Z,46.30
2022-08-31T06:29:37.633Z,46.20
2022-08-31T06:32:10.107Z,46.50
2022-08-31T06:34:46.849Z,46.60
2022-08-31T06:37:34.577Z,46.60
2022-08-31T06:40:07.873Z,46.70
2022-08-31T06:43:01.155Z,46.70
2022-08-31T06:45:31.718Z,46.80
2022-08-31T06:48:18.366Z,46.90
2022-08-31T06:50:45.199Z,46.90
2022-08-31T06:53:12.197Z,47.00
2022-08-31T06:56:20.151Z,47.00
2022-08-31T06:59:07.593Z,47.00
2022-08-31T07:01:53.155Z,47.10
2022-08-31T07:04:39.156Z,47.20
2022-08-31T07:07:08.113Z,47.30
2022-08-31T07:09:35.311Z,47.30
2022-08-31T07:12:04.165Z,47.40
2022-08-31T07:14:31.145Z,47.50
2022-08-31T07:16:59.764Z,47.50
2022-08-31T07:19:27.323Z,47.60
2022-08-31T07:21:58.231Z,47.80
2022-08-31T07:24:30.183Z,47.60
2022-08-31T07:27:09.938Z,47.70
2022-08-31T07:29:42.650Z,47.70
2022-08-31T07:32:14.187Z,47.70
2022-08-31T07:34:43.929Z,47.70
2022-08-31T07:37:40.886Z,47.70
2022-08-31T07:40:27.693Z,47.70
2022-08-31T07:42:55.225Z,47.70
2022-08-31T07:45:29.092Z,47.90
2022-08-31T07:47:59.768Z,47.80
2022-08-31T07:50:31.625Z,48.00
2022-08-31T07:53:24.962Z,48.00
2022-08-31T07:56:12.323Z,48.20
2022-08-31T07:58:42.694Z,48.30
2022-08-31T08:01:11.200Z,48.40
2022-08-31T08:03:40.971Z,48.60
2022-08-31T08:06:28.637Z,48.60
2022-08-31T08:09:27.037Z,48.60
2022-08-31T08:12:06.327Z,48.70
2022-08-31T08:15:01.027Z,48.70
2022-08-31T08:17:46.582Z,48.80
2022-08-31T08:20:15.666Z,48.90
2022-08-31T08:22:54.258Z,48.90
2022-08-31T08:25:34.966Z,49.10
2022-08-31T08:28:22.753Z,49.10
2022-08-31T08:30:54.551Z,49.20
2022-08-31T08:33:25.184Z,49.30
2022-08-31T08:36:00.831Z,49.50
2022-08-31T08:38:30.966Z,49.50
2022-08-31T08:41:04.701Z,49.50
2022-08-31T08:43:36.580Z,49.50
2022-08-31T08:46:31.176Z,50.70
2022-08-31T08:49:00.431Z,49.60
2022-08-31T08:51:38.106Z,49.70
2022-08-31T08:54:15.174Z,49.70
2022-08-31T08:56:47.707Z,49.60
2022-08-31T08:59:19.843Z,49.60
2022-08-31T09:01:50.981Z,49.60
2022-08-31T09:04:39.772Z,49.70
2022-08-31T09:07:47.059Z,49.70
2022-08-31T09:10:46.363Z,49.70
2022-08-31T09:13:36.780Z,49.70
2022-08-31T09:16:15.252Z,49.60
2022-08-31T09:18:49.590Z,49.60
2022-08-31T09:21:34.343Z,49.60
2022-08-31T09:24:05.545Z,49.60
2022-08-31T09:27:19.408Z,49.40
2022-08-31T09:29:59.711Z,49.50
2022-08-31T09:32:32.401Z,49.50
2022-08-31T09:35:06.997Z,49.70
2022-08-31T09:37:48.948Z,50.60
2022-08-31T09:40:23.730Z,49.50
2022-08-31T09:43:13.763Z,49.30
2022-08-31T09:46:04.004Z,49.00
2022-08-31T09:48:56.040Z,49.00
2022-08-31T09:51:29.832Z,48.90
2022-08-31T09:54:26.914Z,48.90
2022-08-31T09:56:56.675Z,49.00
2022-08-31T09:59:43.848Z,49.00
2022-08-31T10:02:26.797Z,49.00
2022-08-31T10:04:57.229Z,49.10
2022-08-31T10:07:29.741Z,49.00
2022-08-31T10:10:28.218Z,48.90
2022-08-31T10:13:05.251Z,48.80
2022-08-31T10:15:48.512Z,48.60
2022-08-31T10:18:19.638Z,48.60
2022-08-31T10:20:58.773Z,48.50
2022-08-31T10:23:33.287Z,48.50
2022-08-31T10:26:07.315Z,48.60
2022-08-31T10:28:51.534Z,48.30
2022-08-31T10:31:30.126Z,48.30
2022-08-31T10:34:29.610Z,48.20
2022-08-31T10:37:09.118Z,48.10
2022-08-31T10:39:48.398Z,47.90
2022-08-31T10:42:30.094Z,47.80
2022-08-31T10:45:09.183Z,47.60
2022-08-31T10:47:41.573Z,47.50
2022-08-31T10:50:10.392Z,47.50
2022-08-31T10:52:59.311Z,47.50
2022-08-31T10:55:29.150Z,47.60
2022-08-31T10:58:08.293Z,47.50
2022-08-31T11:00:53.860Z,47.30
2022-08-31T11:04:11.942Z,47.30
2022-08-31T11:06:53.135Z,47.20
2022-08-31T11:09:32.750Z,47.00
2022-08-31T11:12:15.806Z,46.90
2022-08-31T11:14:58.609Z,46.70
2022-08-31T11:17:35.571Z,46.70
2022-08-31T11:20:24.174Z,46.50
2022-08-31T11:23:19.484Z,46.50
2022-08-31T11:25:56.228Z,46.50
2022-08-31T11:28:49.744Z,46.60
2022-08-31T11:31:27.309Z,46.50
2022-08-31T11:34:15.905Z,46.50
2022-08-31T11:36:50.977Z,46.40
2022-08-31T11:39:36.979Z,46.30
2022-08-31T11:42:09.737Z,46.20
2022-08-31T11:44:37.106Z,46.20
2022-08-31T11:47:06.834Z,46.10
2022-08-31T11:49:52.403Z,45.90
2022-08-31T11:52:24.434Z,45.90
2022-08-31T11:54:52.628Z,46.00
2022-08-31T11:57:24.821Z,46.00
2022-08-31T11:59:53.644Z,45.80
2022-08-31T12:02:21.127Z,45.80
2022-08-31T12:05:00.333Z,45.90
2022-08-31T12:07:36.530Z,45.90
2022-08-31T12:10:18.436Z,45.80
2022-08-31T12:13:32.717Z,45.50
2022-08-31T12:16:37.823Z,45.60
2022-08-31T12:19:42.168Z,45.50
2022-08-31T12:22:57.727Z,45.50
2022-08-31T12:25:43.636Z,45.40
2022-08-31T12:28:39.431Z,45.20
2022-08-31T12:31:13.810Z,45.30
2022-08-31T12:33:53.910Z,45.40
2022-08-31T12:36:28.981Z,45.40
2022-08-31T12:39:12.390Z,45.40
2022-08-31T12:41:47.100Z,45.20
2022-08-31T12:44:24.052Z,45.30
2022-08-31T12:47:29.344Z,45.30
2022-08-31T12:50:02.136Z,45.30
2022-08-31T12:52:35.207Z,45.30
2022-08-31T12:55:14.091Z,45.20
2022-08-31T12:58:09.346Z,45.30
2022-08-31T13:00:43.503Z,45.10
2022-08-31T13:03:24.186Z,45.10
2022-08-31T13:06:09.271Z,45.00
2022-08-31T13:08:42.955Z,44.80
2022-08-31T13:11:22.667Z,44.80
2022-08-31T13:13:52.121Z,44.70
2022-08-31T13:16:19.273Z,44.90
2022-08-31T13:18:46.534Z,44.90
2022-08-31T13:21:21.874Z,44.80
2022-08-31T13:23:48.849Z,44.70
2022-08-31T13:26:25.340Z,44.80
2022-08-31T13:29:04.019Z,44.80
2022-08-31T13:31:35.100Z,44.80
2022-08-31T13:34:07.519Z,44.70
2022-08-31T13:36:51.723Z,44.70
2022-08-31T13:39:34.926Z,44.60
2022-08-31T13:42:28.470Z,44.60
2022-08-31T13:45:08.174Z,45.70
2022-08-31T13:47:55.325Z,44.60
2022-08-31T13:50:32.864Z,44.60
2022-08-31T13:55:49.602Z,44.40
2022-08-31T13:58:31.609Z,44.30
2022-08-31T14:01:24.598Z,44.00
2022-08-31T14:04:00.085Z,44.00
2022-08-31T14:06:33.866Z,44.10
2022-08-31T14:09:17.154Z,44.10
2022-08-31T14:11:53.999Z,43.90
2022-08-31T14:14:26.695Z,43.70
2022-08-31T14:16:57.537Z,43.70
2022-08-31T14:19:39.400Z,43.70
2022-08-31T14:22:25.484Z,43.80
2022-08-31T14:24:55.421Z,43.80
2022-08-31T14:27:23.205Z,43.70
2022-08-31T14:29:52.129Z,43.70
2022-08-31T14:32:22.047Z,43.70
2022-08-31T14:34:49.328Z,43.70
2022-08-31T14:37:22.244Z,43.80
2022-08-31T14:39:55.136Z,43.60
2022-08-31T14:42:26.475Z,43.70
2022-08-31T14:44:59.718Z,43.70
2022-08-31T14:47:28.868Z,43.80
2022-08-31T14:50:01.610Z,43.70
2022-08-31T14:52:28.478Z,43.50
2022-08-31T14:55:02.751Z,43.50
2022-08-31T14:57:32.077Z,43.40
2022-08-31T15:00:02.366Z,43.40
2022-08-31T15:02:33.428Z,43.40
2022-08-31T15:05:04.592Z,43.30
2022-08-31T15:07:36.340Z,43.40
2022-08-31T15:10:06.753Z,43.30
2022-08-31T15:12:34.810Z,43.20
2022-08-31T15:15:01.952Z,43.30
2022-08-31T15:17:33.802Z,43.20
2022-08-31T15:20:03.271Z,43.20
2022-08-31T15:22:31.384Z,43.10
2022-08-31T15:24:58.785Z,43.10
2022-08-31T15:27:28.741Z,43.10
2022-08-31T15:29:59.207Z,42.90
2022-08-31T15:32:26.781Z,42.90
2022-08-31T15:34:57.823Z,42.80
2022-08-31T15:37:31.751Z,42.80
2022-08-31T15:40:01.544Z,42.80
2022-08-31T15:42:29.679Z,42.70
2022-08-31T15:44:57.473Z,42.60
2022-08-31T15:47:49.065Z,42.70
2022-08-31T15:50:20.265Z,42.40
2022-08-31T15:52:51.567Z,42.20
2022-08-31T15:55:23.249Z,42.10
2022-08-31T15:57:54.318Z,42.00
2022-08-31T16:00:23.848Z,42.00
2022-08-31T16:02:53.757Z,41.90
2022-08-31T16:05:21.349Z,42.10
2022-08-31T16:07:48.650Z,41.90
2022-08-31T16:10:19.794Z,41.80
2022-08-31T16:12:47.769Z,41.90
2022-08-31T16:15:15.700Z,41.80
2022-08-31T16:17:43.238Z,41.70
2022-08-31T16:20:12.693Z,41.50
2022-08-31T16:22:42.134Z,41.40
2022-08-31T16:25:11.622Z,41.20
2022-08-31T16:27:40.766Z,41.20
2022-08-31T16:30:10.104Z,41.20
2022-08-31T16:32:38.165Z,41.10
2022-08-31T16:35:05.648Z,41.10
2022-08-31T16:37:33.712Z,41.00
2022-08-31T16:40:00.863Z,40.90
2022-08-31T16:42:27.724Z,40.90
2022-08-31T16:44:59.853Z,40.80
2022-08-31T16:47:29.085Z,40.80
2022-08-31T16:49:56.095Z,40.80
2022-08-31T16:52:27.117Z,40.70
2022-08-31T16:54:56.505Z,40.70
2022-08-31T16:57:27.052Z,40.70
2022-08-31T16:59:55.964Z,40.60
2022-08-31T17:02:23.886Z,40.50
2022-08-31T17:04:53.276Z,40.30
2022-08-31T17:07:23.151Z,40.30
2022-08-31T17:09:50.489Z,40.30
2022-08-31T17:12:21.542Z,40.30
2022-08-31T17:14:52.553Z,40.20
2022-08-31T17:17:25.232Z,40.10
2022-08-31T17:19:54.041Z,40.20
2022-08-31T17:22:29.909Z,40.20
2022-08-31T17:25:02.691Z,40.40
2022-08-31T17:27:32.183Z,40.40
2022-08-31T17:30:01.081Z,40.30
2022-08-31T17:32:28.996Z,40.30
2022-08-31T17:34:56.641Z,40.30
2022-08-31T17:37:26.851Z,40.20
2022-08-31T17:39:55.125Z,40.30
2022-08-31T17:42:23.535Z,40.10
2022-08-31T17:44:53.028Z,40.10
2022-08-31T17:47:22.015Z,40.10
2022-08-31T17:49:50.885Z,40.10
2022-08-31T17:52:20.623Z,40.10
2022-08-31T17:54:48.454Z,40.00
2022-08-31T17:57:16.939Z,39.90
2022-08-31T17:59:48.907Z,39.90
2022-08-31T18:02:19.163Z,39.90
2022-08-31T18:04:46.199Z,40.10
2022-08-31T18:07:13.585Z,40.20
2022-08-31T18:09:42.751Z,40.20
2022-08-31T18:12:09.996Z,40.30
2022-08-31T18:14:39.442Z,40.20
2022-08-31T18:17:10.075Z,40.30
2022-08-31T18:19:37.715Z,40.30
2022-08-31T18:22:05.009Z,40.40
2022-08-31T18:24:36.558Z,40.40
2022-08-31T18:27:07.186Z,40.40
2022-08-31T18:29:36.640Z,40.40
2022-08-31T18:32:06.158Z,40.60
2022-08-31T18:34:36.770Z,40.70
2022-08-31T18:37:04.710Z,40.70
2022-08-31T18:39:52.543Z,40.80
2022-08-31T18:42:39.337Z,40.80
2022-08-31T18:45:16.793Z,41.00
2022-08-31T18:48:01.555Z,41.10
2022-08-31T18:50:36.438Z,41.10
2022-08-31T18:53:08.100Z,41.20
2022-08-31T18:55:38.003Z,41.20
2022-08-31T18:58:04.983Z,41.20
2022-08-31T19:00:33.087Z,41.30
2022-08-31T19:03:01.286Z,41.30
2022-08-31T19:05:28.792Z,41.40
2022-08-31T19:07:55.836Z,41.60
2022-08-31T19:10:23.281Z,41.60
2022-08-31T19:12:50.367Z,41.70
2022-08-31T19:15:17.389Z,41.60
2022-08-31T19:17:49.150Z,41.70
2022-08-31T19:20:16.728Z,41.60
2022-08-31T19:22:43.616Z,41.60
2022-08-31T19:25:12.064Z,41.70
2022-08-31T19:27:39.290Z,41.60
2022-08-31T19:30:08.234Z,41.60
2022-08-31T19:32:36.786Z,41.60
2022-08-31T19:35:04.465Z,41.50
2022-08-31T19:37:31.303Z,41.50
2022-08-31T19:39:58.215Z,41.40
2022-08-31T19:42:40.185Z,41.50
2022-08-31T19:45:24.864Z,41.40
2022-08-31T19:47:52.345Z,41.40
2022-08-31T19:50:19.574Z,41.40
2022-08-31T19:52:46.596Z,41.00
2022-08-31T19:55:13.670Z,41.00
2022-08-31T19:57:43.400Z,41.10
2022-08-31T20:00:11.769Z,41.10
2022-08-31T20:02:40.250Z,41.10
2022-08-31T20:05:07.960Z,41.10
2022-08-31T20:07:35.882Z,41.20
2022-08-31T20:10:04.098Z,41.30
2022-08-31T20:12:31.318Z,41.30
2022-08-31T20:14:58.266Z,41.50
2022-08-31T20:17:25.308Z,41.50
2022-08-31T20:19:52.177Z,41.50
2022-08-31T20:22:23.642Z,41.70
2022-08-31T20:24:53.206Z,41.80
2022-08-31T20:27:20.098Z,42.00
2022-08-31T20:29:48.078Z,42.20
2022-08-31T20:32:15.213Z,42.30
2022-08-31T20:34:43.531Z,42.50
2022-08-31T20:37:10.705Z,42.70
2022-08-31T20:39:41.421Z,42.90
2022-08-31T20:42:08.320Z,43.00
2022-08-31T20:44:37.143Z,43.20
2022-08-31T20:47:26.537Z,43.30
2022-08-31T20:50:02.277Z,43.40
2022-08-31T20:52:31.761Z,43.60
2022-08-31T20:55:02.232Z,43.80
2022-08-31T20:57:32.038Z,43.90
2022-08-31T21:00:05.583Z,44.10
2022-08-31T21:02:34.285Z,44.20
2022-08-31T21:05:20.746Z,44.30
2022-08-31T21:07:49.238Z,44.20
2022-08-31T21:10:16.251Z,44.30
2022-08-31T21:12:49.167Z,44.50
2022-08-31T21:15:22.294Z,44.50
2022-08-31T21:17:56.544Z,44.60
2022-08-31T21:20:25.507Z,44.60
2022-08-31T21:22:53.066Z,44.70
2022-08-31T21:25:20.274Z,44.80
2022-08-31T21:27:47.148Z,44.70
2022-08-31T21:30:14.156Z,44.80
2022-08-31T21:32:41.029Z,44.90
2022-08-31T21:35:14.120Z,44.90
2022-08-31T21:37:41.886Z,45.00
2022-08-31T21:40:10.305Z,45.00
2022-08-31T21:42:37.287Z,45.10
2022-08-31T21:45:04.504Z,45.20
2022-08-31T21:47:31.411Z,45.30
2022-08-31T21:49:58.226Z,45.40
2022-08-31T21:52:25.180Z,45.50
2022-08-31T21:54:52.048Z,45.80
2022-08-31T21:57:18.935Z,45.80
2022-08-31T21:59:45.792Z,45.90
2022-08-31T22:02:13.893Z,45.90
2022-08-31T22:04:43.205Z,46.00
2022-08-31T22:07:14.105Z,46.10
2022-08-31T22:09:41.562Z,46.20
2022-08-31T22:12:09.765Z,46.30
2022-08-31T22:14:39.901Z,46.40
2022-08-31T22:17:08.294Z,46.50
2022-08-31T22:19:39.041Z,46.60
2022-08-31T22:22:11.955Z,46.70
2022-08-31T22:24:40.289Z,46.70
2022-08-31T22:27:09.232Z,46.80
2022-08-31T22:29:37.829Z,46.90
2022-08-31T22:32:13.377Z,47.00
2022-08-31T22:34:41.572Z,47.10
2022-08-31T22:37:09.244Z,47.10
2022-08-31T22:39:36.597Z,47.20
2022-08-31T22:42:04.981Z,47.30
2022-08-31T22:44:35.257Z,47.30
2022-08-31T22:47:02.939Z,47.40
2022-08-31T22:49:29.972Z,47.40
2022-08-31T22:51:57.660Z,47.50
2022-08-31T22:54:25.348Z,47.50
2022-08-31T22:56:53.121Z,47.50
2022-08-31T22:59:26.958Z,47.60
2022-08-31T23:02:00.395Z,47.60
2022-08-31T23:04:29.171Z,47.70
2022-08-31T23:06:57.535Z,47.70
2022-08-31T23:09:27.814Z,47.70
2022-08-31T23:11:56.845Z,47.90
2022-08-31T23:14:24.332Z,48.00
2022-08-31T23:16:58.993Z,48.10
2022-08-31T23:19:33.389Z,48.10
2022-08-31T23:22:01.549Z,48.10
2022-08-31T23:24:37.169Z,48.20
2022-08-31T23:27:09.198Z,48.40
2022-08-31T23:29:45.682Z,48.40
2022-08-31T23:32:16.536Z,48.40
2022-08-31T23:34:43.921Z,48.40
2022-08-31T23:37:12.038Z,48.40
2022-08-31T23:39:41.398Z,48.40
2022-08-31T23:42:11.155Z,48.40
2022-08-31T23:44:42.629Z,48.40
2022-08-31T23:47:12.906Z,48.40
2022-08-31T23:49:40.981Z,48.50
2022-08-31T23:52:08.367Z,48.50
2022-08-31T23:54:37.289Z,48.70
2022-08-31T23:57:05.693Z,48.80
2022-08-31T23:59:36.343Z,48.80
